createdAt,value
2017-07-24T00:00:18.807Z,1005.7
2017-07-24T00:01:20.857Z,1005.7
2017-07-24T00:02:22.904Z,1005.7
2017-07-24T00:03:24.953Z,1005.7
2017-07-24T00:04:27.011Z,1005.7
2017-07-24T00:05:29.403Z,1005.7
2017-07-24T00:06:31.778Z,1005.7
2017-07-24T00:07:33.842Z,1005.7
2017-07-24T00:08:35.895Z,1005.6
2017-07-24T00:09:37.940Z,1005.6
2017-07-24T00:10:39.991Z,1005.6
2017-07-24T00:11:42.366Z,1005.6
2017-07-24T00:12:44.756Z,1005.6
2017-07-24T00:13:46.814Z,1005.6
2017-07-24T00:14:49.197Z,1005.6
2017-07-24T00:15:51.243Z,1005.5
2017-07-24T00:16:53.277Z,1005.6
2017-07-24T00:17:55.328Z,1005.6
2017-07-24T00:18:57.368Z,1005.5
2017-07-24T00:19:59.412Z,1005.5
2017-07-24T00:21:01.482Z,1005.5
2017-07-24T00:22:03.528Z,1005.5
2017-07-24T00:23:05.910Z,1005.5
2017-07-24T00:24:07.975Z,1005.4
2017-07-24T00:25:10.028Z,1005.5
2017-07-24T00:26:12.101Z,1005.5
2017-07-24T00:27:14.153Z,1005.4
2017-07-24T00:28:16.216Z,1005.4
2017-07-24T00:29:18.277Z,1005.4
2017-07-24T00:30:20.335Z,1005.4
2017-07-24T00:31:22.379Z,1005.4
2017-07-24T00:32:24.422Z,1005.4
2017-07-24T00:33:26.477Z,1005.4
2017-07-24T00:34:28.524Z,1005.4
2017-07-24T00:35:30.563Z,1005.4
2017-07-24T00:36:32.954Z,1005.4
2017-07-24T00:37:35.008Z,1005.4
2017-07-24T00:38:37.058Z,1005.4
2017-07-24T00:39:39.103Z,1005.4
2017-07-24T00:40:41.515Z,1005.3
2017-07-24T00:41:43.916Z,1005.3
2017-07-24T00:42:46.311Z,1005.3
2017-07-24T00:43:48.697Z,1005.3
2017-07-24T00:44:50.741Z,1005.3
2017-07-24T00:45:52.800Z,1005.3
2017-07-24T00:46:54.840Z,1005.3
2017-07-24T00:47:57.223Z,1005.3
2017-07-24T00:48:59.276Z,1005.3
2017-07-24T00:50:01.329Z,1005.3
2017-07-24T00:51:04.053Z,1005.3
2017-07-24T00:52:06.437Z,1005.3
2017-07-24T00:53:08.487Z,1005.3
2017-07-24T00:54:10.879Z,1005.3
2017-07-24T00:55:13.613Z,1005.3
2017-07-24T00:56:15.679Z,1005.3
2017-07-24T00:57:17.718Z,1005.3
2017-07-24T00:58:20.107Z,1005.3
2017-07-24T00:59:22.824Z,1005.2
2017-07-24T01:00:25.218Z,1005.2
2017-07-24T01:01:27.643Z,1005.2
2017-07-24T01:02:30.052Z,1005.1
2017-07-24T01:03:32.089Z,1005.1
2017-07-24T01:04:34.473Z,1005.1
2017-07-24T01:05:36.538Z,1005.1
2017-07-24T01:06:38.914Z,1005
2017-07-24T01:07:41.309Z,1005
2017-07-24T01:08:43.359Z,1005
2017-07-24T01:09:45.403Z,1005
2017-07-24T01:10:47.788Z,1005
2017-07-24T01:11:50.518Z,1005
2017-07-24T01:12:52.574Z,1005
2017-07-24T01:13:54.624Z,1004.9
2017-07-24T01:14:56.662Z,1004.9
2017-07-24T01:15:58.713Z,1005
2017-07-24T01:17:01.095Z,1004.9
2017-07-24T01:18:03.496Z,1004.9
2017-07-24T01:19:05.579Z,1005
2017-07-24T01:20:07.631Z,1005
2017-07-24T01:21:09.676Z,1005
2017-07-24T01:22:12.061Z,1005
2017-07-24T01:23:14.121Z,1005
2017-07-24T01:24:16.508Z,1005
2017-07-24T01:25:18.563Z,1005
2017-07-24T01:26:20.612Z,1005
2017-07-24T01:27:22.672Z,1005
2017-07-24T01:28:24.725Z,1005
2017-07-24T01:29:26.781Z,1005
2017-07-24T01:30:28.830Z,1004.9
2017-07-24T01:31:30.872Z,1004.9
2017-07-24T01:32:32.921Z,1004.9
2017-07-24T01:33:34.970Z,1004.9
2017-07-24T01:34:37.345Z,1004.9
2017-07-24T01:35:39.392Z,1004.9
2017-07-24T01:36:41.787Z,1004.8
2017-07-24T01:37:44.505Z,1004.8
2017-07-24T01:38:46.891Z,1004.8
2017-07-24T01:39:49.270Z,1004.8
2017-07-24T01:40:51.346Z,1004.9
2017-07-24T01:41:53.398Z,1004.9
2017-07-24T01:42:55.448Z,1004.9
2017-07-24T01:43:57.495Z,1004.9
2017-07-24T01:44:59.551Z,1005
2017-07-24T01:46:01.599Z,1004.9
2017-07-24T01:47:04.665Z,1004.9
2017-07-24T01:48:07.036Z,1005
2017-07-24T01:49:09.424Z,1005
2017-07-24T01:50:11.471Z,1005
2017-07-24T01:51:13.518Z,1004.9
2017-07-24T01:52:15.563Z,1004.9
2017-07-24T01:53:17.621Z,1004.9
2017-07-24T01:54:19.667Z,1004.9
2017-07-24T01:55:21.714Z,1004.9
2017-07-24T01:56:23.760Z,1004.9
2017-07-24T01:57:25.852Z,1004.9
2017-07-24T01:58:28.239Z,1004.9
2017-07-24T01:59:30.632Z,1004.9
2017-07-24T02:00:32.689Z,1004.9
2017-07-24T02:01:34.741Z,1004.9
2017-07-24T02:02:37.125Z,1004.9
2017-07-24T02:03:39.170Z,1004.8
2017-07-24T02:04:41.562Z,1004.8
2017-07-24T02:05:43.946Z,1004.8
2017-07-24T02:06:45.986Z,1004.8
2017-07-24T02:07:48.022Z,1004.8
2017-07-24T02:08:50.079Z,1004.8
2017-07-24T02:09:52.448Z,1004.7
2017-07-24T02:10:54.509Z,1004.8
2017-07-24T02:11:56.919Z,1004.8
2017-07-24T02:12:58.963Z,1004.8
2017-07-24T02:14:01.012Z,1004.7
2017-07-24T02:15:03.057Z,1004.7
2017-07-24T02:16:06.123Z,1004.7
2017-07-24T02:17:08.523Z,1004.7
2017-07-24T02:18:10.909Z,1004.6
2017-07-24T02:19:12.945Z,1004.6
2017-07-24T02:20:15.664Z,1004.6
2017-07-24T02:21:17.723Z,1004.6
2017-07-24T02:22:19.776Z,1004.6
2017-07-24T02:23:22.155Z,1004.5
2017-07-24T02:24:24.194Z,1004.6
2017-07-24T02:25:26.935Z,1004.6
2017-07-24T02:26:29.000Z,1004.6
2017-07-24T02:27:31.385Z,1004.6
2017-07-24T02:28:33.438Z,1004.6
2017-07-24T02:29:35.490Z,1004.6
2017-07-24T02:30:37.533Z,1004.6
2017-07-24T02:31:39.935Z,1004.6
2017-07-24T02:32:41.982Z,1004.6
2017-07-24T02:33:44.371Z,1004.6
2017-07-24T02:34:46.419Z,1004.5
2017-07-24T02:35:48.463Z,1004.5
2017-07-24T02:36:50.518Z,1004.5
2017-07-24T02:37:52.565Z,1004.5
2017-07-24T02:38:54.940Z,1004.5
2017-07-24T02:39:57.344Z,1004.5
2017-07-24T02:40:59.743Z,1004.5
2017-07-24T02:42:01.800Z,1004.5
2017-07-24T02:43:04.879Z,1004.4
2017-07-24T02:44:07.611Z,1004.4
2017-07-24T02:45:10.366Z,1004.4
2017-07-24T02:46:12.421Z,1004.4
2017-07-24T02:47:14.810Z,1004.4
2017-07-24T02:48:17.203Z,1004.4
2017-07-24T02:49:19.247Z,1004.4
2017-07-24T02:50:21.645Z,1004.4
2017-07-24T02:51:24.044Z,1004.3
2017-07-24T02:52:26.113Z,1004.4
2017-07-24T02:53:28.154Z,1004.4
2017-07-24T02:54:30.195Z,1004.4
2017-07-24T02:55:32.586Z,1004.3
2017-07-24T02:56:34.977Z,1004.3
2017-07-24T02:57:37.711Z,1004.3
2017-07-24T02:58:40.100Z,1004.3
2017-07-24T02:59:42.141Z,1004.3
2017-07-24T03:00:44.534Z,1004.3
2017-07-24T03:01:46.595Z,1004.3
2017-07-24T03:02:48.637Z,1004.3
2017-07-24T03:03:51.024Z,1004.4
2017-07-24T03:04:53.407Z,1004.3
2017-07-24T03:05:55.791Z,1004.3
2017-07-24T03:06:58.181Z,1004.3
2017-07-24T03:08:00.216Z,1004.3
2017-07-24T03:09:02.278Z,1004.3
2017-07-24T03:10:04.324Z,1004.3
2017-07-24T03:11:06.361Z,1004.3
2017-07-24T03:12:08.411Z,1004.3
2017-07-24T03:13:10.821Z,1004.3
2017-07-24T03:14:12.871Z,1004.2
2017-07-24T03:15:14.917Z,1004.3
2017-07-24T03:16:17.638Z,1004.3
2017-07-24T03:17:19.697Z,1004.3
2017-07-24T03:18:21.744Z,1004.3
2017-07-24T03:19:24.145Z,1004.3
2017-07-24T03:20:26.861Z,1004.2
2017-07-24T03:21:28.911Z,1004.2
2017-07-24T03:22:30.969Z,1004.2
2017-07-24T03:23:33.004Z,1004.2
2017-07-24T03:24:35.061Z,1004.2
2017-07-24T03:25:37.114Z,1004.2
2017-07-24T03:26:39.160Z,1004.2
2017-07-24T03:27:41.207Z,1004.1
2017-07-24T03:28:43.604Z,1004.2
2017-07-24T03:29:45.993Z,1004.2
2017-07-24T03:30:48.038Z,1004.2
2017-07-24T03:31:50.109Z,1004.2
2017-07-24T03:32:52.171Z,1004.3
2017-07-24T03:33:54.558Z,1004.2
2017-07-24T03:34:56.591Z,1004.2
2017-07-24T03:35:58.640Z,1004.3
2017-07-24T03:37:01.059Z,1004.2
2017-07-24T03:38:03.115Z,1004.3
2017-07-24T03:39:05.154Z,1004.3
2017-07-24T03:40:07.234Z,1004.2
2017-07-24T03:41:09.627Z,1004.2
2017-07-24T03:42:11.675Z,1004.1
2017-07-24T03:43:14.067Z,1004.1
2017-07-24T03:44:16.130Z,1004.1
2017-07-24T03:45:18.527Z,1004.1
2017-07-24T03:46:20.575Z,1004.1
2017-07-24T03:47:22.632Z,1004.1
2017-07-24T03:48:24.686Z,1004
2017-07-24T03:49:26.752Z,1004.1
2017-07-24T03:50:29.481Z,1004.1
2017-07-24T03:51:31.530Z,1004.1
2017-07-24T03:52:33.582Z,1004.1
2017-07-24T03:53:35.639Z,1004.1
2017-07-24T03:54:37.687Z,1004.1
2017-07-24T03:55:39.731Z,1004.1
2017-07-24T03:56:41.794Z,1004
2017-07-24T03:57:44.171Z,1004.1
2017-07-24T03:58:46.551Z,1004
2017-07-24T03:59:48.946Z,1004.1
2017-07-24T04:00:51.333Z,1004.1
2017-07-24T04:01:54.066Z,1004.1
2017-07-24T04:02:56.471Z,1004
2017-07-24T04:03:58.876Z,1004
2017-07-24T04:05:01.600Z,1004
2017-07-24T04:06:03.637Z,1004
2017-07-24T04:07:06.386Z,1004
2017-07-24T04:08:08.441Z,1004
2017-07-24T04:09:10.492Z,1004
2017-07-24T04:10:12.888Z,1004
2017-07-24T04:11:15.279Z,1004
2017-07-24T04:12:17.349Z,1004
2017-07-24T04:13:19.750Z,1004
2017-07-24T04:14:22.145Z,1004
2017-07-24T04:15:24.182Z,1003.9
2017-07-24T04:16:26.258Z,1003.9
2017-07-24T04:17:28.304Z,1003.9
2017-07-24T04:18:30.353Z,1004
2017-07-24T04:19:32.754Z,1003.9
2017-07-24T04:20:34.808Z,1003.9
2017-07-24T04:21:37.202Z,1003.8
2017-07-24T04:22:39.238Z,1003.9
2017-07-24T04:23:41.313Z,1003.8
2017-07-24T04:24:43.739Z,1003.8
2017-07-24T04:25:46.470Z,1003.8
2017-07-24T04:26:49.193Z,1003.8
2017-07-24T04:27:51.258Z,1003.8
2017-07-24T04:28:53.305Z,1003.8
2017-07-24T04:29:55.713Z,1003.8
2017-07-24T04:30:58.086Z,1003.8
2017-07-24T04:32:00.479Z,1003.8
2017-07-24T04:33:02.530Z,1003.7
2017-07-24T04:34:04.582Z,1003.7
2017-07-24T04:35:07.642Z,1003.8
2017-07-24T04:36:09.686Z,1003.8
2017-07-24T04:37:12.416Z,1003.7
2017-07-24T04:38:14.820Z,1003.8
2017-07-24T04:39:17.218Z,1003.7
2017-07-24T04:40:19.278Z,1003.7
2017-07-24T04:41:21.319Z,1003.7
2017-07-24T04:42:23.376Z,1003.7
2017-07-24T04:43:25.447Z,1003.7
2017-07-24T04:44:27.857Z,1003.7
2017-07-24T04:45:29.901Z,1003.7
2017-07-24T04:46:32.287Z,1003.8
2017-07-24T04:47:34.329Z,1003.8
2017-07-24T04:48:37.078Z,1003.7
2017-07-24T04:49:39.118Z,1003.7
2017-07-24T04:50:41.168Z,1003.7
2017-07-24T04:51:43.557Z,1003.7
2017-07-24T04:52:45.946Z,1003.7
2017-07-24T04:53:47.998Z,1003.7
2017-07-24T04:54:50.056Z,1003.7
2017-07-24T04:55:52.122Z,1003.7
2017-07-24T04:56:54.171Z,1003.7
2017-07-24T04:57:56.211Z,1003.8
2017-07-24T04:58:58.288Z,1003.8
2017-07-24T05:00:01.024Z,1003.8
2017-07-24T05:01:03.073Z,1003.7
2017-07-24T05:02:05.460Z,1003.7
2017-07-24T05:03:07.635Z,1003.7
2017-07-24T05:04:10.383Z,1003.7
2017-07-24T05:05:12.772Z,1003.7
2017-07-24T05:06:15.310Z,1003.7
2017-07-24T05:07:17.737Z,1003.7
2017-07-24T05:08:20.575Z,1003.7
2017-07-24T05:09:22.635Z,1003.6
2017-07-24T05:10:25.028Z,1003.7
2017-07-24T05:11:29.674Z,1003.7
2017-07-24T05:12:33.768Z,1003.6
2017-07-24T05:13:36.732Z,1003.6
2017-07-24T05:14:40.347Z,1003.5
2017-07-24T05:15:42.741Z,1003.5
2017-07-24T05:16:44.806Z,1003.5
2017-07-24T05:17:46.852Z,1003.6
2017-07-24T05:18:48.918Z,1003.6
2017-07-24T05:19:50.966Z,1003.5
2017-07-24T05:20:53.344Z,1003.5
2017-07-24T05:21:55.407Z,1003.5
2017-07-24T05:22:57.464Z,1003.4
2017-07-24T05:23:59.520Z,1003.4
2017-07-24T05:25:01.928Z,1003.5
2017-07-24T05:26:04.661Z,1003.4
2017-07-24T05:27:06.724Z,1003.4
2017-07-24T05:28:08.781Z,1003.4
2017-07-24T05:29:10.836Z,1003.4
2017-07-24T05:30:13.240Z,1003.4
2017-07-24T05:31:15.316Z,1003.3
2017-07-24T05:32:17.394Z,1003.3
2017-07-24T05:33:19.788Z,1003.3
2017-07-24T05:34:21.857Z,1003.3
2017-07-24T05:35:24.245Z,1003.3
2017-07-24T05:36:26.301Z,1003.4
2017-07-24T05:37:28.339Z,1003.3
2017-07-24T05:38:30.408Z,1003.3
2017-07-24T05:39:32.464Z,1003.3
2017-07-24T05:40:34.518Z,1003.3
2017-07-24T05:41:36.565Z,1003.3
2017-07-24T05:42:38.616Z,1003.3
2017-07-24T05:43:40.670Z,1003.3
2017-07-24T05:44:42.723Z,1003.3
2017-07-24T05:45:44.789Z,1003.3
2017-07-24T05:46:47.204Z,1003.3
2017-07-24T05:47:49.919Z,1003.3
2017-07-24T05:48:52.657Z,1003.3
2017-07-24T05:49:54.710Z,1003.3
2017-07-24T05:50:56.763Z,1003.3
2017-07-24T05:52:00.672Z,1003.3
2017-07-24T05:53:08.555Z,1003.3
2017-07-24T05:54:10.614Z,1003.3
2017-07-24T05:55:12.673Z,1003.3
2017-07-24T05:56:14.734Z,1003.3
2017-07-24T05:57:16.793Z,1003.3
2017-07-24T05:58:18.858Z,1003.3
2017-07-24T05:59:20.912Z,1003.3
2017-07-24T06:00:23.319Z,1003.3
2017-07-24T06:01:25.748Z,1003.3
2017-07-24T06:02:27.820Z,1003.3
2017-07-24T06:03:29.972Z,1003.3
2017-07-24T06:04:32.364Z,1003.2
2017-07-24T06:05:34.761Z,1003.2
2017-07-24T06:06:36.818Z,1003.3
2017-07-24T06:07:38.866Z,1003.2
2017-07-24T06:08:40.940Z,1003.2
2017-07-24T06:09:43.341Z,1003.3
2017-07-24T06:10:45.734Z,1003.3
2017-07-24T06:11:48.133Z,1003.3
2017-07-24T06:12:50.191Z,1003.3
2017-07-24T06:13:52.236Z,1003.3
2017-07-24T06:14:54.651Z,1003.3
2017-07-24T06:15:56.722Z,1003.3
2017-07-24T06:16:59.117Z,1003.3
2017-07-24T06:18:01.170Z,1003.2
2017-07-24T06:19:03.918Z,1003.3
2017-07-24T06:20:05.965Z,1003.2
2017-07-24T06:21:08.029Z,1003.2
2017-07-24T06:22:10.085Z,1003.2
2017-07-24T06:23:12.485Z,1003.3
2017-07-24T06:24:15.209Z,1003.3
2017-07-24T06:25:17.258Z,1003.2
2017-07-24T06:26:19.668Z,1003.3
2017-07-24T06:27:21.721Z,1003.3
2017-07-24T06:28:23.769Z,1003.3
2017-07-24T06:29:26.165Z,1003.3
2017-07-24T06:30:28.225Z,1003.3
2017-07-24T06:31:30.283Z,1003.3
2017-07-24T06:32:32.345Z,1003.3
2017-07-24T06:33:34.748Z,1003.3
2017-07-24T06:34:36.817Z,1003.3
2017-07-24T06:35:39.532Z,1003.4
2017-07-24T06:36:41.609Z,1003.3
2017-07-24T06:37:44.001Z,1003.3
2017-07-24T06:38:46.061Z,1003.3
2017-07-24T06:39:48.457Z,1003.3
2017-07-24T06:40:50.508Z,1003.3
2017-07-24T06:41:52.589Z,1003.3
2017-07-24T06:42:54.663Z,1003.3
2017-07-24T06:43:56.732Z,1003.3
2017-07-24T06:44:58.788Z,1003.4
2017-07-24T06:46:00.855Z,1003.4
2017-07-24T06:47:02.928Z,1003.4
2017-07-24T06:48:05.664Z,1003.4
2017-07-24T06:49:07.719Z,1003.3
2017-07-24T06:50:09.775Z,1003.3
2017-07-24T06:51:11.852Z,1003.3
2017-07-24T06:52:13.909Z,1003.3
2017-07-24T06:53:15.953Z,1003.3
2017-07-24T06:54:18.021Z,1003.3
2017-07-24T06:55:20.412Z,1003.3
2017-07-24T06:56:22.813Z,1003.3
2017-07-24T06:57:24.900Z,1003.3
2017-07-24T06:58:27.308Z,1003.3
2017-07-24T06:59:29.377Z,1003.3
2017-07-24T07:00:31.432Z,1003.3
2017-07-24T07:01:33.495Z,1003.3
2017-07-24T07:02:35.546Z,1003.4
2017-07-24T07:03:37.623Z,1003.4
2017-07-24T07:04:40.015Z,1003.5
2017-07-24T07:05:42.071Z,1003.5
2017-07-24T07:06:44.144Z,1003.5
2017-07-24T07:07:46.542Z,1003.4
2017-07-24T07:08:48.593Z,1003.4
2017-07-24T07:09:50.989Z,1003.4
2017-07-24T07:10:53.055Z,1003.4
2017-07-24T07:11:55.459Z,1003.4
2017-07-24T07:12:57.511Z,1003.4
2017-07-24T07:13:59.923Z,1003.4
2017-07-24T07:15:01.988Z,1003.3
2017-07-24T07:16:04.362Z,1003.4
2017-07-24T07:17:06.424Z,1003.4
2017-07-24T07:18:08.482Z,1003.4
2017-07-24T07:19:10.896Z,1003.4
2017-07-24T07:20:12.954Z,1003.4
2017-07-24T07:21:15.685Z,1003.4
2017-07-24T07:22:17.740Z,1003.4
2017-07-24T07:23:19.811Z,1003.4
2017-07-24T07:24:21.868Z,1003.4
2017-07-24T07:25:23.920Z,1003.4
2017-07-24T07:26:25.996Z,1003.4
2017-07-24T07:27:28.056Z,1003.4
2017-07-24T07:28:30.449Z,1003.4
2017-07-24T07:29:32.510Z,1003.4
2017-07-24T07:30:34.568Z,1003.4
2017-07-24T07:31:36.991Z,1003.4
2017-07-24T07:32:39.058Z,1003.4
2017-07-24T07:33:41.806Z,1003.4
2017-07-24T07:34:43.869Z,1003.4
2017-07-24T07:35:45.924Z,1003.4
2017-07-24T07:36:47.975Z,1003.4
2017-07-24T07:37:50.035Z,1003.4
2017-07-24T07:38:52.089Z,1003.4
2017-07-24T07:39:54.170Z,1003.5
2017-07-24T07:40:56.589Z,1003.4
2017-07-24T07:41:58.667Z,1003.4
2017-07-24T07:43:00.731Z,1003.4
2017-07-24T07:44:03.120Z,1003.4
2017-07-24T07:45:05.189Z,1003.4
2017-07-24T07:46:07.925Z,1003.4
2017-07-24T07:47:10.698Z,1003.4
2017-07-24T07:48:13.460Z,1003.5
2017-07-24T07:49:15.853Z,1003.5
2017-07-24T07:50:18.265Z,1003.4
2017-07-24T07:51:20.307Z,1003.5
2017-07-24T07:52:22.709Z,1003.4
2017-07-24T07:53:24.776Z,1003.4
2017-07-24T07:54:26.833Z,1003.4
2017-07-24T07:55:28.898Z,1003.4
2017-07-24T07:56:30.964Z,1003.4
2017-07-24T07:57:33.016Z,1003.5
2017-07-24T07:58:35.085Z,1003.4
2017-07-24T07:59:37.133Z,1003.4
2017-07-24T08:00:39.209Z,1003.4
2017-07-24T08:01:41.752Z,1003.4
2017-07-24T08:02:43.807Z,1003.4
2017-07-24T08:03:45.867Z,1003.4
2017-07-24T08:04:48.266Z,1003.4
2017-07-24T08:05:50.324Z,1003.4
2017-07-24T08:06:52.745Z,1003.4
2017-07-24T08:07:55.481Z,1003.4
2017-07-24T08:08:57.537Z,1003.4
2017-07-24T08:09:59.599Z,1003.4
2017-07-24T08:11:02.014Z,1003.3
2017-07-24T08:12:04.081Z,1003.3
2017-07-24T08:13:06.132Z,1003.3
2017-07-24T08:14:08.872Z,1003.4
2017-07-24T08:15:10.941Z,1003.4
2017-07-24T08:16:13.003Z,1003.4
2017-07-24T08:17:15.756Z,1003.4
2017-07-24T08:18:18.160Z,1003.4
2017-07-24T08:19:20.234Z,1003.4
2017-07-24T08:20:22.291Z,1003.4
2017-07-24T08:21:24.368Z,1003.4
2017-07-24T08:22:26.437Z,1003.4
2017-07-24T08:23:28.840Z,1003.4
2017-07-24T08:24:30.901Z,1003.4
2017-07-24T08:25:33.313Z,1003.4
2017-07-24T08:26:35.730Z,1003.4
2017-07-24T08:27:37.795Z,1003.4
2017-07-24T08:28:39.857Z,1003.4
2017-07-24T08:29:41.912Z,1003.5
2017-07-24T08:30:43.976Z,1003.4
2017-07-24T08:31:46.021Z,1003.4
2017-07-24T08:32:48.078Z,1003.4
2017-07-24T08:33:50.157Z,1003.4
2017-07-24T08:34:52.213Z,1003.4
2017-07-24T08:35:54.606Z,1003.4
2017-07-24T08:36:56.665Z,1003.3
2017-07-24T08:37:59.060Z,1003.3
2017-07-24T08:39:01.461Z,1003.3
2017-07-24T08:40:03.520Z,1003.3
2017-07-24T08:41:05.591Z,1003.3
2017-07-24T08:42:07.659Z,1003.3
2017-07-24T08:43:09.716Z,1003.3
2017-07-24T08:44:11.787Z,1003.3
2017-07-24T08:45:13.855Z,1003.3
2017-07-24T08:46:16.254Z,1003.3
2017-07-24T08:47:18.673Z,1003.2
2017-07-24T08:48:20.742Z,1003.3
2017-07-24T08:49:22.805Z,1003.2
2017-07-24T08:50:25.217Z,1003.2
2017-07-24T08:51:27.277Z,1003.2
2017-07-24T08:52:29.338Z,1003.1
2017-07-24T08:53:32.074Z,1003.1
2017-07-24T08:54:34.816Z,1003.1
2017-07-24T08:55:36.886Z,1003.1
2017-07-24T08:56:39.625Z,1003.1
2017-07-24T08:57:42.031Z,1003.1
2017-07-24T08:58:44.423Z,1003.1
2017-07-24T08:59:46.475Z,1003.1
2017-07-24T09:00:48.560Z,1003.2
2017-07-24T09:01:50.624Z,1003.2
2017-07-24T09:02:52.686Z,1003.1
2017-07-24T09:03:54.766Z,1003.2
2017-07-24T09:04:57.156Z,1003.2
2017-07-24T09:05:59.583Z,1003.2
2017-07-24T09:07:02.008Z,1003.2
2017-07-24T09:08:04.075Z,1003.1
2017-07-24T09:09:06.486Z,1003
2017-07-24T09:10:08.550Z,1003.1
2017-07-24T09:11:10.954Z,1003.1
2017-07-24T09:12:13.347Z,1003.1
2017-07-24T09:13:15.401Z,1003.1
2017-07-24T09:14:17.816Z,1003.1
2017-07-24T09:15:20.205Z,1003.1
2017-07-24T09:16:22.618Z,1003.1
2017-07-24T09:17:24.681Z,1003.1
2017-07-24T09:18:26.737Z,1003.1
2017-07-24T09:19:29.153Z,1003
2017-07-24T09:20:31.220Z,1003
2017-07-24T09:21:33.286Z,1003
2017-07-24T09:22:35.351Z,1003
2017-07-24T09:23:37.412Z,1003
2017-07-24T09:24:39.496Z,1003
2017-07-24T09:25:41.576Z,1003
2017-07-24T09:26:43.657Z,1003
2017-07-24T09:27:46.056Z,1003
2017-07-24T09:28:48.127Z,1003
2017-07-24T09:29:50.191Z,1003
2017-07-24T09:30:52.261Z,1003
2017-07-24T09:31:54.694Z,1003
2017-07-24T09:32:57.459Z,1003
2017-07-24T09:33:59.523Z,1003
2017-07-24T09:35:01.631Z,1002.9
2017-07-24T09:36:04.406Z,1002.9
2017-07-24T09:37:06.468Z,1003
2017-07-24T09:38:08.874Z,1003
2017-07-24T09:39:11.971Z,1003
2017-07-24T09:40:14.028Z,1003
2017-07-24T09:41:16.447Z,1003
2017-07-24T09:42:18.511Z,1002.9
2017-07-24T09:43:20.579Z,1002.9
2017-07-24T09:44:22.982Z,1002.9
2017-07-24T09:45:25.061Z,1002.8
2017-07-24T09:46:27.115Z,1002.8
2017-07-24T09:47:29.177Z,1002.8
2017-07-24T09:48:31.256Z,1002.8
2017-07-24T09:49:33.674Z,1002.8
2017-07-24T09:50:36.087Z,1002.8
2017-07-24T09:51:38.155Z,1002.9
2017-07-24T09:52:40.221Z,1002.8
2017-07-24T09:53:42.296Z,1002.8
2017-07-24T09:54:44.700Z,1002.8
2017-07-24T09:55:46.768Z,1002.8
2017-07-24T09:56:48.840Z,1002.8
2017-07-24T09:57:50.911Z,1002.8
2017-07-24T09:58:53.022Z,1002.8
2017-07-24T09:59:55.765Z,1002.8
2017-07-24T10:00:57.845Z,1002.8
2017-07-24T10:01:59.936Z,1002.8
2017-07-24T10:03:02.000Z,1002.8
2017-07-24T10:04:04.414Z,1002.8
2017-07-24T10:05:06.879Z,1002.8
2017-07-24T10:06:08.955Z,1002.8
2017-07-24T10:07:11.028Z,1002.8
2017-07-24T10:08:13.446Z,1002.8
2017-07-24T10:09:15.872Z,1002.7
2017-07-24T10:10:17.937Z,1002.7
2017-07-24T10:11:20.017Z,1002.8
2017-07-24T10:12:22.105Z,1002.8
2017-07-24T10:13:24.498Z,1002.8
2017-07-24T10:14:26.568Z,1002.8
2017-07-24T10:15:28.654Z,1002.8
2017-07-24T10:16:31.077Z,1002.7
2017-07-24T10:17:33.156Z,1002.8
2017-07-24T10:18:35.577Z,1002.8
2017-07-24T10:19:38.024Z,1002.7
2017-07-24T10:20:40.109Z,1002.7
2017-07-24T10:21:42.175Z,1002.7
2017-07-24T10:22:44.272Z,1002.7
2017-07-24T10:23:46.344Z,1002.7
2017-07-24T10:24:48.408Z,1002.7
2017-07-24T10:25:50.818Z,1002.7
2017-07-24T10:26:52.883Z,1002.7
2017-07-24T10:27:55.318Z,1002.7
2017-07-24T10:28:57.762Z,1002.7
2017-07-24T10:30:00.175Z,1002.7
2017-07-24T10:31:02.603Z,1002.7
2017-07-24T10:32:04.673Z,1002.7
2017-07-24T10:33:06.762Z,1002.6
2017-07-24T10:34:09.171Z,1002.6
2017-07-24T10:35:11.231Z,1002.6
2017-07-24T10:36:13.656Z,1002.6
2017-07-24T10:37:15.742Z,1002.7
2017-07-24T10:38:17.821Z,1002.7
2017-07-24T10:39:19.882Z,1002.6
2017-07-24T10:40:21.951Z,1002.5
2017-07-24T10:41:24.048Z,1002.5
2017-07-24T10:42:26.450Z,1002.5
2017-07-24T10:43:28.528Z,1002.5
2017-07-24T10:44:30.993Z,1002.4
2017-07-24T10:45:33.402Z,1002.4
2017-07-24T10:46:35.814Z,1002.5
2017-07-24T10:47:37.885Z,1002.5
2017-07-24T10:48:39.956Z,1002.4
2017-07-24T10:49:42.037Z,1002.4
2017-07-24T10:50:44.101Z,1002.4
2017-07-24T10:51:46.524Z,1002.5
2017-07-24T10:52:48.938Z,1002.5
2017-07-24T10:53:51.000Z,1002.5
2017-07-24T10:54:53.076Z,1002.5
2017-07-24T10:55:56.183Z,1002.4
2017-07-24T10:56:58.599Z,1002.5
2017-07-24T10:58:00.668Z,1002.5
2017-07-24T10:59:02.746Z,1002.5
2017-07-24T11:00:05.173Z,1002.5
2017-07-24T11:01:07.244Z,1002.5
2017-07-24T11:02:10.021Z,1002.5
2017-07-24T11:03:12.113Z,1002.5
2017-07-24T11:04:14.193Z,1002.5
2017-07-24T11:05:16.609Z,1002.5
2017-07-24T11:06:19.017Z,1002.5
2017-07-24T11:07:21.789Z,1002.4
2017-07-24T11:08:24.543Z,1002.4
2017-07-24T11:09:26.618Z,1002.4
2017-07-24T11:10:29.026Z,1002.4
2017-07-24T11:11:31.120Z,1002.3
2017-07-24T11:12:33.203Z,1002.3
2017-07-24T11:13:35.638Z,1002.3
2017-07-24T11:14:38.075Z,1002.4
2017-07-24T11:15:40.141Z,1002.4
2017-07-24T11:16:42.210Z,1002.4
2017-07-24T11:17:44.297Z,1002.3
2017-07-24T11:18:46.379Z,1002.3
2017-07-24T11:19:48.504Z,1002.3
2017-07-24T11:20:50.608Z,1002.4
2017-07-24T11:21:52.684Z,1002.4
2017-07-24T11:22:54.750Z,1002.3
2017-07-24T11:23:56.818Z,1002.3
2017-07-24T11:24:58.914Z,1002.3
2017-07-24T11:26:00.992Z,1002.3
2017-07-24T11:27:03.061Z,1002.3
2017-07-24T11:28:05.478Z,1002.3
2017-07-24T11:29:07.884Z,1002.3
2017-07-24T11:30:09.963Z,1002.3
2017-07-24T11:31:12.394Z,1002.3
2017-07-24T11:32:14.463Z,1002.4
2017-07-24T11:33:16.540Z,1002.3
2017-07-24T11:34:18.936Z,1002.4
2017-07-24T11:35:21.002Z,1002.3
2017-07-24T11:36:23.085Z,1002.3
2017-07-24T11:37:25.146Z,1002.2
2017-07-24T11:38:27.215Z,1002.3
2017-07-24T11:39:29.288Z,1002.2
2017-07-24T11:40:31.361Z,1002.2
2017-07-24T11:41:33.424Z,1002.2
2017-07-24T11:42:35.493Z,1002.2
2017-07-24T11:43:37.574Z,1002.2
2017-07-24T11:44:39.654Z,1002.2
2017-07-24T11:45:41.714Z,1002.2
2017-07-24T11:46:43.790Z,1002.2
2017-07-24T11:47:46.222Z,1002.2
2017-07-24T11:48:48.299Z,1002.1
2017-07-24T11:49:50.401Z,1002.1
2017-07-24T11:50:52.462Z,1002
2017-07-24T11:51:54.522Z,1002
2017-07-24T11:52:56.621Z,1002
2017-07-24T11:53:58.690Z,1002
2017-07-24T11:55:00.754Z,1002
2017-07-24T11:56:02.820Z,1001.9
2017-07-24T11:57:05.233Z,1001.9
2017-07-24T11:58:07.350Z,1001.9
2017-07-24T11:59:09.419Z,1001.9
2017-07-24T12:00:12.184Z,1001.9
2017-07-24T12:01:14.246Z,1001.9
2017-07-24T12:02:16.310Z,1001.8
2017-07-24T12:03:18.374Z,1001.9
2017-07-24T12:04:20.778Z,1001.9
2017-07-24T12:05:22.871Z,1001.9
2017-07-24T12:06:24.937Z,1001.9
2017-07-24T12:07:27.345Z,1001.8
2017-07-24T12:08:29.428Z,1001.8
2017-07-24T12:09:31.487Z,1001.8
2017-07-24T12:10:34.237Z,1001.8
2017-07-24T12:11:36.308Z,1001.8
2017-07-24T12:12:38.368Z,1001.8
2017-07-24T12:13:40.439Z,1001.8
2017-07-24T12:14:42.498Z,1001.8
2017-07-24T12:15:44.569Z,1001.8
2017-07-24T12:16:46.999Z,1001.7
2017-07-24T12:17:49.421Z,1001.8
2017-07-24T12:18:52.191Z,1001.8
2017-07-24T12:19:54.275Z,1001.8
2017-07-24T12:20:56.349Z,1001.8
2017-07-24T12:21:58.422Z,1001.8
2017-07-24T12:23:00.501Z,1001.7
2017-07-24T12:24:02.926Z,1001.8
2017-07-24T12:25:04.985Z,1001.8
2017-07-24T12:26:07.434Z,1001.8
2017-07-24T12:27:09.500Z,1001.8
2017-07-24T12:28:11.578Z,1001.8
2017-07-24T12:29:13.648Z,1001.8
2017-07-24T12:30:15.726Z,1001.8
2017-07-24T12:31:17.823Z,1001.8
2017-07-24T12:32:19.884Z,1001.7
2017-07-24T12:33:21.953Z,1001.7
2017-07-24T12:34:24.030Z,1001.8
2017-07-24T12:35:26.427Z,1001.8
2017-07-24T12:36:28.493Z,1001.8
2017-07-24T12:37:30.569Z,1001.8
2017-07-24T12:38:33.003Z,1001.7
2017-07-24T12:39:35.077Z,1001.8
2017-07-24T12:40:37.145Z,1001.8
2017-07-24T12:41:39.233Z,1001.8
2017-07-24T12:42:41.302Z,1001.8
2017-07-24T12:43:43.371Z,1001.8
2017-07-24T12:44:45.441Z,1001.8
2017-07-24T12:45:47.542Z,1001.7
2017-07-24T12:46:50.339Z,1001.8
2017-07-24T12:47:52.402Z,1001.8
2017-07-24T12:48:54.813Z,1001.8
2017-07-24T12:49:56.902Z,1001.8
2017-07-24T12:50:58.984Z,1001.8
2017-07-24T12:52:01.045Z,1001.8
2017-07-24T12:53:03.135Z,1001.8
2017-07-24T12:54:05.564Z,1001.8
2017-07-24T12:55:33.317Z,1001.8
2017-07-24T12:56:35.419Z,1001.8
2017-07-24T12:57:37.877Z,1001.9
2017-07-24T12:58:40.337Z,1001.8
2017-07-24T12:59:42.783Z,1001.8
2017-07-24T13:00:44.910Z,1001.9